Alplaus, New York
Current Conditions -  °F | °C
As of 3:51 AM on Monday 24 Nov 2014 (Local Time) from KALB Reporting Station
Light Rain Light Rain  
Wind Chill: 46°   Ceiling: 2100
Heat Index: 48°   Visibility: 8mi
Dew Point: 43°   Wind: 5mph
Humidity: 83%   Direction: 150°SSE
Pressure: 29.78"   Gusts: NA
Location:  42.86°N, 73.9°W
Report Text: KALB 240851Z 15004KT 8SM -RA OVC021 09/06 A2978 RMK AO2 RAB0758 PRESFR SLP085 P0000 60000 T00890061 58056
Loading
Personal Weather Stations






























Interactive Weather Map New forecast layout! Learn more

10-Day Weather Forecast

Advertisements
Track Severe Weather on mobile